Time;durP1;ratioP1;P1;durP2;ratioP2;P2;SDS_P1;SDS_P2;PMS_P1;PMS_P2;Temp;Humidity;BMP_temperature;BMP_pressure;BME280_temperature;BME280_humidity;BME280_pressure;Samples;Min_cycle;Max_cycle;Signal;HPM_P1;HPM_P2
2022/05/04 00:00:27;;;;;;;7.33;3.93;;;11.50;96.50;;;;;;5011305;28;20257;-72
2022/05/04 00:02:53;;;;;;;4.17;3.50;;;11.40;96.80;;;;;;5012542;28;20498;-72
2022/05/04 00:05:19;;;;;;;6.90;4.13;;;11.40;96.90;;;;;;5011117;28;20247;-72
2022/05/04 00:07:45;;;;;;;4.80;3.77;;;11.30;96.90;;;;;;5011265;28;20271;-72
2022/05/04 00:10:11;;;;;;;5.57;3.77;;;11.30;97.00;;;;;;5012465;28;20182;-72
2022/05/04 00:12:37;;;;;;;6.97;3.90;;;11.20;97.00;;;;;;5011196;28;20862;-72
2022/05/04 00:15:03;;;;;;;7.37;3.83;;;11.10;97.10;;;;;;5011327;28;20502;-72
2022/05/04 00:17:29;;;;;;;6.43;4.27;;;11.10;97.20;;;;;;5012545;28;20630;-71
2022/05/04 00:19:54;;;;;;;5.73;3.70;;;11.00;97.30;;;;;;5011097;28;20424;-72
2022/05/04 00:22:21;;;;;;;6.70;4.40;;;10.90;97.30;;;;;;5012532;28;20268;-72
2022/05/04 00:24:48;;;;;;;5.80;4.17;;;10.80;97.30;;;;;;5012492;28;20316;-72
2022/05/04 00:27:15;;;;;;;5.97;4.17;;;10.80;97.30;;;;;;5010880;28;20431;-72
2022/05/04 00:29:44;;;;;;;6.80;4.00;;;10.70;97.30;;;;;;5010777;28;20429;-72
2022/05/04 00:32:17;;;;;;;4.80;3.60;;;10.70;97.30;;;;;;5010115;28;20458;-72
2022/05/04 00:34:43;;;;;;;5.17;3.30;;;10.60;97.30;;;;;;5010964;28;20654;-72
2022/05/04 00:37:09;;;;;;;5.93;4.33;;;10.50;97.30;;;;;;5010644;28;20566;-72
2022/05/04 00:39:34;;;;;;;6.97;4.40;;;10.30;97.30;;;;;;5012203;28;20818;-72
2022/05/04 00:42:20;;;;;;;7.57;3.90;;;10.30;97.30;;;;;;5010649;28;20412;-72
2022/05/04 00:44:49;;;;;;;10.50;3.13;;;10.20;97.30;;;;;;5010303;28;20197;-72
2022/05/04 00:47:16;;;;;;;6.47;4.17;;;10.10;97.30;;;;;;5010407;28;20834;-71
2022/05/04 00:49:44;;;;;;;5.50;3.80;;;10.10;97.30;;;;;;5011969;28;20416;-72
2022/05/04 00:52:13;;;;;;;10.07;4.47;;;10.10;97.30;;;;;;5011687;28;20415;-72
2022/05/04 00:54:42;;;;;;;9.00;5.20;;;10.10;97.30;;;;;;5009955;28;20483;-72
2022/05/04 00:57:08;;;;;;;7.73;4.80;;;10.00;97.30;;;;;;5010230;28;20455;-72
2022/05/04 00:59:37;;;;;;;7.60;4.60;;;10.00;97.30;;;;;;5011369;28;20416;-73
2022/05/04 01:02:03;;;;;;;7.80;4.97;;;10.00;97.30;;;;;;5010340;28;20268;-72
2022/05/04 01:04:29;;;;;;;6.17;4.10;;;10.00;97.30;;;;;;5011526;28;20558;-72
2022/05/04 01:06:55;;;;;;;10.13;4.70;;;10.00;97.30;;;;;;5010402;28;20892;-72
2022/05/04 01:09:21;;;;;;;6.80;4.70;;;9.90;97.30;;;;;;5011401;28;20183;-72
2022/05/04 01:11:47;;;;;;;7.90;5.03;;;9.90;97.30;;;;;;5011428;28;20177;-72
2022/05/04 01:14:15;;;;;;;7.33;4.70;;;9.80;97.30;;;;;;5010134;28;20189;-72
2022/05/04 01:16:43;;;;;;;7.03;4.53;;;9.80;97.30;;;;;;5011423;28;20538;-72
2022/05/04 01:19:10;;;;;;;10.43;5.07;;;9.70;97.30;;;;;;5009872;28;20933;-72
2022/05/04 01:21:35;;;;;;;7.80;4.43;;;9.70;97.30;;;;;;5011349;28;20503;-72
2022/05/04 01:24:01;;;;;;;6.67;4.33;;;9.60;97.30;;;;;;5011274;28;20499;-72
2022/05/04 01:26:27;;;;;;;8.43;5.50;;;9.60;97.30;;;;;;5010836;28;20193;-77
2022/05/04 01:28:53;;;;;;;11.83;5.37;;;9.60;97.30;;;;;;5011250;28;20568;-78
2022/05/04 01:31:18;;;;;;;7.73;5.10;;;9.60;97.30;;;;;;5009943;28;20185;-78
2022/05/04 01:33:44;;;;;;;11.43;5.83;;;9.60;97.30;;;;;;5010112;28;20185;-78
2022/05/04 01:36:10;;;;;;;11.37;5.80;;;9.60;97.30;;;;;;5009901;28;20209;-78
2022/05/04 01:38:36;;;;;;;7.47;5.80;;;9.60;97.30;;;;;;5011666;28;20183;-78
2022/05/04 01:41:02;;;;;;;7.77;4.93;;;9.60;97.30;;;;;;5011586;28;20212;-80
2022/05/04 01:43:28;;;;;;;9.27;4.93;;;9.70;97.30;;;;;;5011472;28;20420;-79
2022/05/04 01:45:54;;;;;;;7.07;4.57;;;9.70;97.30;;;;;;5010152;28;20502;-78
2022/05/04 01:48:20;;;;;;;10.03;5.27;;;9.70;97.30;;;;;;5011790;28;20653;-78
2022/05/04 01:50:46;;;;;;;11.53;5.30;;;9.70;97.30;;;;;;5012299;28;20173;-78
2022/05/04 01:53:12;;;;;;;7.93;4.60;;;9.80;97.30;;;;;;5010856;28;20443;-78
2022/05/04 01:55:38;;;;;;;9.63;5.60;;;9.80;97.30;;;;;;5010855;28;20200;-78
2022/05/04 01:58:04;;;;;;;17.80;6.10;;;9.70;97.30;;;;;;5012086;28;20474;-78
2022/05/04 02:00:30;;;;;;;8.80;5.27;;;9.70;97.30;;;;;;5011620;28;20412;-78
2022/05/04 02:02:58;;;;;;;10.20;5.60;;;9.70;97.30;;;;;;5010431;28;20419;-78
2022/05/04 02:05:24;;;;;;;6.83;5.10;;;9.70;97.30;;;;;;5010302;28;20819;-78
2022/05/04 02:07:50;;;;;;;9.33;5.30;;;9.70;97.30;;;;;;5010505;28;21016;-78
2022/05/04 02:10:16;;;;;;;8.40;5.03;;;9.60;97.30;;;;;;5009802;28;20511;-78
2022/05/04 02:12:42;;;;;;;9.00;5.83;;;9.60;97.30;;;;;;5010828;28;20551;-79
2022/05/04 02:15:10;;;;;;;7.57;5.57;;;9.60;97.30;;;;;;5010217;28;20436;-77
2022/05/04 02:17:36;;;;;;;7.87;5.80;;;9.60;97.30;;;;;;5010154;28;20517;-77
2022/05/04 02:20:03;;;;;;;10.33;6.17;;;9.50;97.30;;;;;;5010358;28;20596;-77
2022/05/04 02:22:29;;;;;;;12.70;6.27;;;9.50;97.30;;;;;;5008847;28;20518;-77
2022/05/04 02:24:54;;;;;;;14.63;6.13;;;9.50;97.30;;;;;;5009852;28;20527;-78
2022/05/04 02:27:20;;;;;;;12.00;6.33;;;9.50;97.30;;;;;;5008135;28;20200;-77
2022/05/04 02:29:45;;;;;;;12.30;6.10;;;9.50;97.30;;;;;;5007415;28;20555;-78
2022/05/04 02:32:11;;;;;;;9.93;6.43;;;9.50;97.30;;;;;;5007594;28;20181;-77
2022/05/04 02:37:54;;;;;;;11.67;7.77;;;9.40;97.30;;;;;;5009385;28;20204;-77
2022/05/04 02:40:07;;;;;;;7.93;5.30;;;9.40;97.30;;;;;;5009666;28;20976;-77
2022/05/04 02:42:33;;;;;;;10.10;5.80;;;9.30;97.30;;;;;;5009840;28;20416;-77
2022/05/04 02:44:58;;;;;;;9.77;5.57;;;9.30;97.30;;;;;;5008159;28;20510;-78
2022/05/04 02:47:24;;;;;;;11.83;5.87;;;9.30;97.30;;;;;;5009989;28;20181;-78
2022/05/04 02:49:49;;;;;;;9.93;5.20;;;9.20;97.30;;;;;;5009588;28;20188;-77
2022/05/04 02:52:15;;;;;;;10.67;5.30;;;9.20;97.30;;;;;;5008533;28;20225;-77
2022/05/04 02:54:41;;;;;;;11.70;6.60;;;9.20;97.30;;;;;;5009778;28;20229;-77
2022/05/04 02:57:07;;;;;;;11.13;6.50;;;9.10;97.30;;;;;;5011441;28;20521;-77
2022/05/04 02:59:33;;;;;;;9.37;6.17;;;9.10;97.30;;;;;;5014045;28;20219;-77
2022/05/04 03:04:43;;;;;;;9.47;6.17;;;9.10;97.30;;;;;;5013595;28;20486;-77
2022/05/04 03:07:08;;;;;;;11.40;6.40;;;9.10;97.30;;;;;;5012417;28;20515;-77
2022/05/04 03:09:34;;;;;;;13.43;6.37;;;9.00;97.30;;;;;;5013870;28;20181;-77
2022/05/04 03:12:00;;;;;;;10.27;6.57;;;9.00;97.30;;;;;;5012237;28;20181;-77
2022/05/04 03:14:28;;;;;;;12.03;6.93;;;9.00;97.30;;;;;;5011998;28;20204;-77
2022/05/04 03:16:55;;;;;;;11.67;7.20;;;9.00;97.30;;;;;;5013285;28;20498;-77
2022/05/04 03:19:21;;;;;;;12.50;6.50;;;9.00;97.30;;;;;;5012007;28;20416;-77
2022/05/04 03:21:48;;;;;;;11.80;8.00;;;9.00;97.30;;;;;;5012091;28;20416;-77
2022/05/04 03:24:14;;;;;;;11.93;6.60;;;8.90;97.30;;;;;;5011942;28;20539;-77
2022/05/04 03:26:40;;;;;;;12.50;7.20;;;8.90;97.30;;;;;;5011853;28;20477;-78
2022/05/04 03:29:06;;;;;;;12.63;7.03;;;8.90;97.30;;;;;;5013141;28;20510;-77
2022/05/04 03:31:32;;;;;;;13.17;7.10;;;8.90;97.30;;;;;;5013055;28;20817;-77
2022/05/04 03:33:57;;;;;;;9.17;5.80;;;8.90;97.30;;;;;;5012049;28;20515;-70
2022/05/04 03:36:23;;;;;;;9.53;6.30;;;8.70;97.30;;;;;;5012972;28;20566;-71
2022/05/04 03:38:49;;;;;;;9.57;5.90;;;8.60;97.30;;;;;;5012121;28;20177;-71
2022/05/04 03:41:15;;;;;;;9.70;6.67;;;8.50;97.30;;;;;;5013437;28;20435;-72
2022/05/04 03:43:41;;;;;;;9.27;5.50;;;8.50;97.30;;;;;;5012010;28;20185;-71
2022/05/04 03:46:12;;;;;;;8.53;5.37;;;8.50;97.30;;;;;;5013129;28;20442;-71
2022/05/04 03:48:38;;;;;;;13.07;8.67;;;8.40;97.30;;;;;;5011951;28;20513;-71
2022/05/04 03:51:04;;;;;;;11.63;7.20;;;8.40;97.30;;;;;;5011520;28;20463;-71
2022/05/04 03:53:30;;;;;;;9.43;5.87;;;8.50;97.30;;;;;;5012903;28;20702;-71
2022/05/04 03:55:56;;;;;;;13.30;7.27;;;8.50;97.30;;;;;;5012660;28;20436;-72
2022/05/04 03:58:21;;;;;;;13.33;5.93;;;8.50;97.30;;;;;;5011723;28;20180;-71
2022/05/04 04:00:47;;;;;;;12.43;6.87;;;8.50;97.30;;;;;;5013008;28;20264;-71
2022/05/04 04:03:12;;;;;;;14.73;7.43;;;8.50;97.30;;;;;;5012812;28;20556;-71
2022/05/04 04:05:38;;;;;;;13.00;7.30;;;8.50;97.30;;;;;;5010738;28;20212;-71
2022/05/04 04:08:04;;;;;;;12.00;7.50;;;8.50;97.30;;;;;;5013009;28;20196;-72
2022/05/04 04:10:29;;;;;;;14.13;8.20;;;8.60;97.30;;;;;;5011575;28;20192;-71
2022/05/04 04:12:55;;;;;;;12.47;7.43;;;8.60;97.30;;;;;;5011810;28;20811;-72
2022/05/04 04:15:21;;;;;;;14.93;7.70;;;8.70;97.30;;;;;;5011751;28;20284;-72
2022/05/04 04:17:47;;;;;;;11.90;7.33;;;8.80;97.30;;;;;;5011783;28;20247;-71
2022/05/04 04:22:57;;;;;;;16.33;7.50;;;8.90;97.30;;;;;;5013210;28;20784;-72
2022/05/04 04:25:23;;;;;;;15.13;7.83;;;9.00;97.30;;;;;;5011651;28;20440;-71
2022/05/04 04:27:49;;;;;;;15.70;8.40;;;9.10;97.30;;;;;;5012988;28;20181;-71
2022/05/04 04:30:14;;;;;;;14.30;8.17;;;9.10;97.30;;;;;;5013023;28;20416;-72
2022/05/04 04:32:40;;;;;;;13.37;7.50;;;9.20;97.30;;;;;;5012711;28;20173;-72
2022/05/04 04:35:06;;;;;;;14.37;7.20;;;9.20;97.30;;;;;;5011098;28;20235;-72
2022/05/04 04:37:32;;;;;;;18.37;8.80;;;9.20;97.30;;;;;;5010614;28;20209;-72
2022/05/04 04:39:57;;;;;;;12.33;6.73;;;9.20;97.30;;;;;;5011142;28;20490;-72
2022/05/04 04:42:23;;;;;;;12.77;6.97;;;9.20;97.30;;;;;;5012542;28;20181;-72
2022/05/04 04:44:49;;;;;;;10.07;7.00;;;9.20;97.30;;;;;;5011420;28;20576;-72
2022/05/04 04:47:14;;;;;;;12.33;6.80;;;9.10;97.30;;;;;;5012693;28;20507;-72
2022/05/04 04:49:40;;;;;;;11.10;6.87;;;9.10;97.30;;;;;;5012693;28;20239;-72
2022/05/04 04:52:06;;;;;;;11.90;6.33;;;9.10;97.30;;;;;;5012460;28;20220;-71
2022/05/04 04:54:31;;;;;;;14.60;6.77;;;9.10;97.30;;;;;;5012065;28;20274;-72
2022/05/04 04:56:57;;;;;;;14.73;7.83;;;9.20;97.30;;;;;;5012261;28;20189;-72
2022/05/04 04:59:22;;;;;;;13.83;8.27;;;9.20;97.30;;;;;;5012178;28;20177;-72
2022/05/04 05:01:48;;;;;;;18.67;9.03;;;9.30;97.30;;;;;;5011975;28;20177;-72
2022/05/04 05:04:14;;;;;;;20.97;10.43;;;9.30;97.30;;;;;;5012187;28;20162;-72
2022/05/04 05:06:39;;;;;;;20.10;11.03;;;9.40;97.30;;;;;;5011956;28;20775;-72
2022/05/04 05:09:05;;;;;;;17.07;8.73;;;9.50;97.30;;;;;;5010922;28;20184;-71
2022/05/04 05:11:30;;;;;;;15.00;8.50;;;9.50;97.30;;;;;;5011907;28;20646;-72
2022/05/04 05:16:40;;;;;;;17.67;9.13;;;9.70;97.30;;;;;;5011399;28;20693;-73
2022/05/04 05:19:05;;;;;;;12.83;9.37;;;9.80;97.30;;;;;;5011489;28;20416;-73
2022/05/04 05:21:31;;;;;;;17.40;9.10;;;9.80;97.30;;;;;;5012630;28;20171;-72
2022/05/04 05:23:56;;;;;;;17.87;8.77;;;9.90;97.30;;;;;;5011898;28;20169;-72
2022/05/04 05:26:22;;;;;;;14.77;8.73;;;9.90;97.30;;;;;;5011889;28;20721;-72
2022/05/04 05:28:47;;;;;;;17.50;8.67;;;10.00;97.30;;;;;;5011894;28;20629;-72
2022/05/04 05:31:13;;;;;;;20.40;9.77;;;10.10;97.30;;;;;;5010593;28;20670;-71
2022/05/04 05:33:39;;;;;;;17.97;8.83;;;10.10;97.30;;;;;;5010878;28;20223;-72
2022/05/04 05:36:05;;;;;;;17.17;8.90;;;10.20;97.30;;;;;;5011771;28;20587;-73
2022/05/04 05:38:31;;;;;;;15.97;8.00;;;10.30;97.30;;;;;;5011763;28;20177;-73
2022/05/04 05:40:57;;;;;;;13.60;8.40;;;10.30;97.30;;;;;;5011715;28;20412;-76
2022/05/04 05:43:22;;;;;;;13.57;7.57;;;10.30;97.30;;;;;;5012673;28;20188;-76
2022/05/04 05:45:48;;;;;;;17.23;9.27;;;10.40;97.30;;;;;;5010953;28;20655;-76
2022/05/04 05:48:13;;;;;;;18.33;9.07;;;10.40;97.30;;;;;;5010959;28;20182;-76
2022/05/04 05:50:39;;;;;;;14.10;8.20;;;10.50;97.30;;;;;;5011751;28;20216;-76
2022/05/04 05:53:05;;;;;;;20.00;8.73;;;10.50;97.30;;;;;;5008765;28;20647;-76
2022/05/04 05:55:31;;;;;;;16.93;8.50;;;10.60;97.30;;;;;;5004594;28;20464;-75
2022/05/04 05:57:56;;;;;;;13.73;7.90;;;10.70;97.30;;;;;;5008005;28;20509;-75
2022/05/04 06:00:22;;;;;;;17.43;8.30;;;10.80;97.30;;;;;;5010047;28;20189;-75
2022/05/04 06:02:48;;;;;;;16.50;9.60;;;10.90;97.30;;;;;;5011123;28;20188;-75
2022/05/04 06:05:14;;;;;;;20.70;9.43;;;10.90;97.30;;;;;;5010528;28;20205;-75
2022/05/04 06:07:40;;;;;;;21.23;7.97;;;11.00;97.30;;;;;;5011869;28;20177;-74
2022/05/04 06:10:06;;;;;;;15.90;8.50;;;11.10;97.30;;;;;;5007856;28;20546;-75
2022/05/04 06:12:31;;;;;;;14.10;9.40;;;11.10;97.30;;;;;;5006123;28;20221;-75
2022/05/04 06:14:57;;;;;;;13.43;8.70;;;11.20;97.30;;;;;;5022914;28;20551;-74
2022/05/04 06:17:23;;;;;;;11.83;8.00;;;11.40;97.30;;;;;;5011163;28;20219;-75
2022/05/04 06:19:48;;;;;;;12.03;7.47;;;11.50;97.30;;;;;;5011256;28;20176;-75
2022/05/04 06:22:14;;;;;;;15.47;8.23;;;11.60;97.30;;;;;;5010491;28;20180;-77
2022/05/04 06:24:40;;;;;;;16.43;8.00;;;11.70;97.30;;;;;;5009874;28;20247;-77
2022/05/04 06:27:06;;;;;;;15.33;7.77;;;11.80;97.30;;;;;;5009997;28;20477;-77
2022/05/04 06:35:06;;;;;;;11.63;7.30;;;12.20;97.30;;;;;;5011216;28;20438;-75
2022/05/04 06:37:32;;;;;;;16.70;7.10;;;12.20;97.30;;;;;;5009289;28;20462;-75
2022/05/04 06:39:58;;;;;;;20.83;8.00;;;12.30;97.30;;;;;;5009989;28;20420;-77
2022/05/04 06:42:24;;;;;;;24.33;7.67;;;12.30;97.30;;;;;;5010840;28;20945;-78
2022/05/04 06:44:52;;;;;;;19.00;7.77;;;12.30;97.30;;;;;;5010882;28;20479;-78
2022/05/04 06:47:23;;;;;;;14.33;7.63;;;12.30;97.30;;;;;;5011828;28;20194;-79
2022/05/04 06:49:48;;;;;;;13.30;7.67;;;12.30;97.30;;;;;;5010307;28;20803;-77
2022/05/04 06:52:14;;;;;;;13.73;7.93;;;12.30;97.30;;;;;;5010442;28;20424;-77
2022/05/04 06:54:40;;;;;;;16.73;8.83;;;12.40;97.30;;;;;;5010662;28;20324;-76
2022/05/04 06:57:05;;;;;;;19.90;8.10;;;12.50;97.30;;;;;;5009821;28;20255;-76
2022/05/04 06:59:31;;;;;;;14.50;7.63;;;12.60;97.30;;;;;;5010735;28;20187;-75
2022/05/04 07:01:56;;;;;;;15.30;8.00;;;12.70;97.30;;;;;;5011086;28;20261;-75
2022/05/04 07:04:22;;;;;;;14.37;7.73;;;12.80;97.30;;;;;;5009501;28;20638;-75
2022/05/04 07:06:49;;;;;;;26.83;7.90;;;13.00;97.30;;;;;;5009407;28;20208;-75
2022/05/04 07:09:14;;;;;;;14.20;7.80;;;13.20;97.30;;;;;;5009678;28;20213;-75
2022/05/04 07:11:40;;;;;;;18.07;6.90;;;13.30;97.30;;;;;;5009371;28;20455;-76
2022/05/04 07:14:05;;;;;;;11.47;8.00;;;13.40;97.30;;;;;;5009731;28;20177;-76
2022/05/04 07:16:31;;;;;;;13.83;7.70;;;13.40;97.30;;;;;;5022978;28;20303;-76
2022/05/04 07:18:57;;;;;;;15.00;8.13;;;13.30;97.30;;;;;;5008747;28;20285;-76
2022/05/04 07:21:22;;;;;;;11.57;7.80;;;13.20;97.30;;;;;;5010821;28;20179;-75
2022/05/04 07:23:48;;;;;;;13.23;7.27;;;13.20;97.30;;;;;;5008977;28;20627;-77
2022/05/04 07:26:13;;;;;;;11.90;8.43;;;13.10;97.30;;;;;;5008040;28;20208;-75
2022/05/04 07:28:39;;;;;;;19.77;8.63;;;13.00;97.30;;;;;;5008081;28;20185;-75
2022/05/04 07:31:04;;;;;;;14.03;7.27;;;12.90;97.30;;;;;;5010019;28;20548;-76
2022/05/04 07:33:31;;;;;;;15.40;8.00;;;12.80;97.30;;;;;;5010517;28;20174;-76
2022/05/04 07:35:56;;;;;;;14.63;7.70;;;12.80;97.30;;;;;;5005874;28;20385;-75
2022/05/04 07:38:22;;;;;;;16.40;7.77;;;12.80;97.30;;;;;;5000687;28;20515;-75
2022/05/04 07:43:31;;;;;;;15.57;7.67;;;12.70;97.30;;;;;;5014319;28;20562;-76
2022/05/04 07:45:57;;;;;;;17.77;7.50;;;12.70;97.30;;;;;;5013117;28;20435;-75
2022/05/04 07:48:23;;;;;;;13.53;9.07;;;12.70;97.30;;;;;;5014572;28;20653;-79
2022/05/04 07:50:48;;;;;;;14.73;8.47;;;12.70;97.30;;;;;;5019410;28;20219;-79
2022/05/04 07:53:14;;;;;;;17.07;7.23;;;12.70;97.30;;;;;;5017416;28;20185;-79
2022/05/04 07:55:39;;;;;;;11.77;7.70;;;12.60;97.30;;;;;;5018491;28;20211;-79
2022/05/04 07:58:05;;;;;;;15.77;8.33;;;12.60;97.30;;;;;;5018536;28;20243;-80
2022/05/04 08:05:59;;;;;;;15.27;8.80;;;12.50;97.30;;;;;;5018659;28;20523;-80
2022/05/04 08:08:24;;;;;;;17.07;8.80;;;12.50;97.30;;;;;;5017070;28;20455;-79
2022/05/04 08:10:50;;;;;;;21.77;8.87;;;12.50;97.30;;;;;;5018110;28;20185;-80
2022/05/04 08:13:19;;;;;;;18.37;8.97;;;12.50;97.30;;;;;;5017506;28;20545;-81
2022/05/04 08:15:44;;;;;;;19.20;9.27;;;12.40;97.30;;;;;;5017604;28;20368;-81
2022/05/04 08:18:10;;;;;;;20.20;9.27;;;12.40;97.30;;;;;;5018160;28;21001;-80
2022/05/04 08:20:36;;;;;;;16.33;9.13;;;12.40;97.30;;;;;;5017944;28;20173;-80
2022/05/04 08:23:01;;;;;;;16.13;9.53;;;12.40;97.30;;;;;;5017546;28;20178;-80
2022/05/04 08:25:27;;;;;;;16.40;10.20;;;12.40;97.30;;;;;;5019170;28;20189;-80
2022/05/04 08:27:53;;;;;;;15.20;9.40;;;12.40;97.30;;;;;;5017853;28;20563;-80
2022/05/04 08:30:20;;;;;;;24.77;11.10;;;12.30;97.30;;;;;;5017952;28;20193;-80
2022/05/04 08:32:47;;;;;;;21.40;10.53;;;12.30;97.30;;;;;;5016549;28;20185;-80
2022/05/04 08:35:13;;;;;;;17.83;10.03;;;12.20;97.30;;;;;;5016899;28;20448;-80
2022/05/04 08:37:40;;;;;;;14.27;9.10;;;12.30;97.30;;;;;;5018018;28;20478;-80
2022/05/04 08:40:08;;;;;;;21.67;10.17;;;12.30;97.30;;;;;;5016097;28;20181;-80
2022/05/04 08:42:38;;;;;;;17.80;10.33;;;12.30;97.30;;;;;;5019388;28;20925;-80
2022/05/04 08:45:06;;;;;;;16.87;9.70;;;12.30;97.30;;;;;;5017323;28;20428;-80
2022/05/04 08:47:32;;;;;;;18.80;9.00;;;12.30;97.30;;;;;;5018675;28;20547;-81
2022/05/04 08:49:58;;;;;;;20.23;10.50;;;12.40;97.30;;;;;;5016473;28;20424;-80
2022/05/04 08:52:27;;;;;;;16.30;9.53;;;12.30;97.30;;;;;;5016982;28;21258;-79
2022/05/04 08:54:54;;;;;;;17.73;8.77;;;12.30;97.30;;;;;;5015387;28;20571;-80
2022/05/04 08:57:21;;;;;;;18.93;9.30;;;12.30;97.30;;;;;;5014736;28;20872;-80
2022/05/04 08:59:46;;;;;;;16.13;9.80;;;12.30;97.30;;;;;;5028188;28;20786;-80
2022/05/04 09:02:12;;;;;;;21.73;9.63;;;12.20;97.30;;;;;;5014297;28;20569;-80
2022/05/04 09:04:44;;;;;;;15.67;9.80;;;12.20;97.30;;;;;;5014131;28;20201;-81
2022/05/04 09:07:25;;;;;;;20.73;10.77;;;12.20;97.30;;;;;;5015803;28;20201;-80
2022/05/04 09:09:53;;;;;;;17.67;9.80;;;12.10;97.30;;;;;;5015253;28;20487;-80
2022/05/04 09:12:18;;;;;;;21.90;11.77;;;12.10;97.30;;;;;;5014341;28;20857;-80
2022/05/04 09:14:45;;;;;;;23.30;10.13;;;12.10;97.30;;;;;;5014461;28;20479;-81
2022/05/04 09:17:14;;;;;;;22.87;10.80;;;12.10;97.30;;;;;;5014612;28;20208;-80
2022/05/04 09:20:45;;;;;;;22.47;11.43;;;12.10;97.30;;;;;;5015018;28;20669;-80
2022/05/04 09:22:27;;;;;;;15.70;9.80;;;12.10;97.30;;;;;;5014084;28;20416;-80
2022/05/04 09:24:56;;;;;;;18.20;10.03;;;12.10;97.30;;;;;;5012070;28;20481;-80
2022/05/04 09:27:29;;;;;;;24.53;10.17;;;12.10;97.30;;;;;;5012794;28;20706;-80
2022/05/04 09:29:59;;;;;;;20.23;11.57;;;12.10;97.30;;;;;;5013298;28;20408;-80
2022/05/04 09:32:30;;;;;;;24.17;9.80;;;12.10;97.30;;;;;;5012422;28;20414;-80
2022/05/04 09:34:55;;;;;;;22.43;10.90;;;12.10;97.30;;;;;;5013683;28;20494;-80
2022/05/04 09:45:39;;;;;;;22.17;10.20;;;12.30;97.30;;;;;;5016312;28;20732;-80
2022/05/04 09:48:05;;;;;;;20.07;9.90;;;12.30;97.30;;;;;;5014573;28;20416;-81
2022/05/04 09:50:41;;;;;;;20.57;10.57;;;12.30;97.30;;;;;;5015214;28;20424;-80
2022/05/04 09:53:07;;;;;;;17.03;9.40;;;12.30;97.30;;;;;;5013242;28;20412;-80
2022/05/04 09:55:33;;;;;;;21.93;10.60;;;12.30;97.30;;;;;;5012427;28;20447;-78
2022/05/04 09:57:59;;;;;;;19.27;11.03;;;12.40;97.30;;;;;;5011470;28;20467;-78
2022/05/04 10:00:26;;;;;;;25.23;11.40;;;12.40;97.30;;;;;;5010163;28;20841;-78
2022/05/04 10:02:54;;;;;;;24.57;11.30;;;12.40;97.30;;;;;;5009917;28;20184;-78
2022/05/04 10:05:21;;;;;;;19.47;10.37;;;12.40;97.30;;;;;;5009585;28;20815;-78
2022/05/04 10:07:49;;;;;;;22.27;10.53;;;12.50;97.30;;;;;;5011138;28;20507;-78
2022/05/04 10:10:15;;;;;;;19.27;10.77;;;12.50;97.30;;;;;;5009840;28;20519;-77
2022/05/04 10:12:42;;;;;;;21.50;10.83;;;12.50;97.30;;;;;;5026039;28;20502;-78
2022/05/04 10:15:19;;;;;;;21.63;9.43;;;12.50;97.30;;;;;;5009694;28;20568;-78
2022/05/04 10:17:53;;;;;;;18.97;10.80;;;12.50;97.30;;;;;;5010853;28;20467;-78
2022/05/04 10:20:21;;;;;;;21.87;9.87;;;12.60;97.30;;;;;;5009929;28;20768;-78
2022/05/04 10:23:09;;;;;;;17.73;10.23;;;12.60;97.30;;;;;;5011105;28;20420;-78
2022/05/04 10:25:35;;;;;;;17.03;9.43;;;12.60;97.30;;;;;;5025675;28;20444;-78
2022/05/04 10:28:05;;;;;;;19.43;9.20;;;12.70;97.30;;;;;;5009444;28;20837;-79
2022/05/04 10:30:30;;;;;;;19.37;10.57;;;12.70;97.30;;;;;;5009472;28;20424;-78
2022/05/04 10:32:58;;;;;;;17.70;10.13;;;12.80;97.30;;;;;;5025731;28;20418;-78
2022/05/04 10:35:40;;;;;;;16.87;10.20;;;12.80;97.30;;;;;;5010740;28;20651;-78
2022/05/04 10:38:08;;;;;;;19.07;10.30;;;12.90;97.30;;;;;;5009567;28;20487;-78
2022/05/04 10:40:41;;;;;;;15.70;8.80;;;12.90;97.30;;;;;;5009567;28;20789;-78
2022/05/04 10:43:16;;;;;;;19.40;10.63;;;13.00;97.30;;;;;;5009668;28;20794;-78
2022/05/04 10:45:44;;;;;;;14.97;9.53;;;13.10;97.30;;;;;;5010971;28;20525;-78
2022/05/04 10:48:22;;;;;;;22.93;10.03;;;13.10;97.30;;;;;;5010920;28;20440;-78
2022/05/04 10:50:48;;;;;;;16.97;11.10;;;13.20;97.30;;;;;;5010864;28;20404;-78
2022/05/04 10:53:25;;;;;;;20.43;9.90;;;13.20;97.30;;;;;;5009193;28;20479;-78
2022/05/04 10:56:00;;;;;;;20.73;9.23;;;13.20;97.30;;;;;;5009178;28;20205;-78
2022/05/04 10:58:33;;;;;;;15.00;9.30;;;13.30;97.30;;;;;;5009167;28;20459;-78
2022/05/04 11:01:20;;;;;;;18.90;8.90;;;13.40;97.30;;;;;;5009094;28;20427;-78
2022/05/04 11:03:54;;;;;;;15.00;9.43;;;13.50;97.30;;;;;;5009957;28;20493;-78
2022/05/04 11:06:31;;;;;;;17.53;8.97;;;13.70;97.30;;;;;;5010334;28;20455;-78
2022/05/04 11:09:02;;;;;;;14.40;7.90;;;13.80;97.30;;;;;;5010200;28;20408;-78
2022/05/04 11:11:28;;;;;;;14.80;8.00;;;13.90;97.30;;;;;;5008837;28;20422;-78
2022/05/04 11:13:54;;;;;;;14.73;7.60;;;14.10;97.30;;;;;;5008719;28;20420;-78
2022/05/04 11:16:22;;;;;;;13.07;7.60;;;14.20;97.30;;;;;;5008573;28;20431;-78
2022/05/04 11:18:47;;;;;;;13.90;6.90;;;14.40;97.30;;;;;;5012164;28;20674;-78
2022/05/04 11:21:14;;;;;;;14.40;7.43;;;14.40;97.30;;;;;;5012489;28;20428;-78
2022/05/04 11:23:45;;;;;;;16.10;8.23;;;14.50;97.30;;;;;;5013815;28;20169;-78
2022/05/04 11:26:42;;;;;;;13.80;7.90;;;14.60;97.30;;;;;;5012537;28;20431;-78
2022/05/04 11:29:09;;;;;;;16.30;7.03;;;14.80;97.30;;;;;;4991232;28;21008;-79
2022/05/04 11:31:35;;;;;;;16.37;7.37;;;15.00;97.30;;;;;;5012184;28;20825;-78
2022/05/04 11:34:01;;;;;;;9.90;6.80;;;15.20;97.30;;;;;;5012335;28;20858;-78
2022/05/04 11:36:28;;;;;;;15.57;7.10;;;15.40;97.30;;;;;;5011337;28;20216;-78
2022/05/04 11:38:53;;;;;;;11.23;8.10;;;15.60;97.30;;;;;;5008481;28;20791;-78
2022/05/04 11:41:20;;;;;;;11.97;6.70;;;15.90;97.30;;;;;;5012283;28;20416;-78
2022/05/04 11:43:48;;;;;;;10.93;6.50;;;16.10;97.30;;;;;;5012081;28;20663;-78
2022/05/04 11:46:15;;;;;;;11.40;6.20;;;16.30;97.30;;;;;;5011589;28;20432;-78
2022/05/04 11:48:46;;;;;;;8.13;5.60;;;16.50;97.30;;;;;;5002909;28;20428;-78
2022/05/04 11:51:16;;;;;;;7.27;5.40;;;16.60;97.00;;;;;;5011482;28;20420;-78
2022/05/04 11:53:43;;;;;;;7.20;5.30;;;16.70;97.30;;;;;;5012825;28;20969;-78
2022/05/04 11:56:09;;;;;;;6.27;4.90;;;16.80;97.30;;;;;;5012688;28;20431;-78
2022/05/04 11:58:39;;;;;;;6.27;4.47;;;17.00;96.80;;;;;;5011564;28;20420;-78
2022/05/04 12:01:07;;;;;;;7.70;5.30;;;17.20;96.60;;;;;;5009156;28;20759;-76
2022/05/04 12:03:35;;;;;;;9.47;4.20;;;17.30;94.80;;;;;;5009917;28;20458;-77
2022/05/04 12:06:03;;;;;;;8.47;5.20;;;17.40;94.10;;;;;;5009104;28;20452;-77
2022/05/04 12:08:29;;;;;;;7.77;5.30;;;17.40;93.30;;;;;;5009798;28;20411;-76
2022/05/04 12:10:55;;;;;;;9.13;5.40;;;17.40;93.80;;;;;;5010384;28;20444;-76
2022/05/04 12:13:23;;;;;;;8.27;5.50;;;17.50;92.60;;;;;;5010559;28;20418;-76
2022/05/04 12:15:52;;;;;;;8.20;5.30;;;17.70;92.70;;;;;;5011227;28;20451;-76
2022/05/04 12:18:17;;;;;;;8.57;5.33;;;18.10;94.50;;;;;;5009924;28;20502;-76
2022/05/04 12:20:44;;;;;;;9.60;5.20;;;18.50;93.60;;;;;;5012181;28;20734;-76
2022/05/04 12:23:12;;;;;;;7.33;5.10;;;18.90;91.90;;;;;;5010694;28;20608;-76
2022/05/04 12:25:42;;;;;;;6.77;5.00;;;19.20;91.80;;;;;;5010751;28;20432;-76
2022/05/04 12:28:08;;;;;;;8.77;5.40;;;19.40;88.00;;;;;;5011265;28;20416;-76
2022/05/04 12:33:33;;;;;;;7.50;5.30;;;19.90;88.00;;;;;;5010575;28;20546;-76
2022/05/04 12:36:05;;;;;;;8.70;5.10;;;20.00;87.60;;;;;;5010651;28;20436;-76
2022/05/04 12:38:35;;;;;;;10.60;5.30;;;20.00;86.30;;;;;;4999410;28;20523;-77
2022/05/04 12:41:05;;;;;;;7.53;5.40;;;20.00;87.90;;;;;;5005833;28;20499;-77
2022/05/04 12:43:38;;;;;;;7.20;5.30;;;20.20;88.00;;;;;;5011133;28;20431;-77
2022/05/04 12:46:07;;;;;;;7.47;5.20;;;20.50;86.40;;;;;;5007963;28;20458;-77
2022/05/04 12:48:36;;;;;;;8.00;5.63;;;20.60;84.40;;;;;;5010569;28;20424;-77
2022/05/04 12:51:03;;;;;;;9.20;5.50;;;20.70;84.30;;;;;;5012385;28;20426;-76
2022/05/04 12:53:28;;;;;;;4.93;4.40;;;20.70;84.00;;;;;;5012808;28;20460;-76
2022/05/04 12:58:39;;;;;;;9.10;5.70;;;21.10;84.80;;;;;;5011937;28;20239;-75
2022/05/04 13:01:04;;;;;;;7.30;5.23;;;21.20;84.50;;;;;;5011804;28;20408;-76
2022/05/04 13:03:31;;;;;;;9.37;6.17;;;21.30;85.00;;;;;;5011929;28;20408;-76
2022/05/04 13:05:57;;;;;;;9.40;5.50;;;21.60;83.90;;;;;;5011741;28;20254;-80
2022/05/04 13:08:23;;;;;;;10.43;6.60;;;21.80;84.50;;;;;;5014179;28;20839;-80
2022/05/04 13:10:49;;;;;;;8.27;6.00;;;21.90;83.00;;;;;;5015970;28;20177;-80
2022/05/04 13:13:18;;;;;;;7.80;5.50;;;22.00;82.10;;;;;;5015627;28;20486;-80
2022/05/04 13:15:44;;;;;;;11.07;5.70;;;22.00;80.30;;;;;;5014432;28;20440;-79
2022/05/04 13:18:10;;;;;;;7.67;6.17;;;22.00;79.00;;;;;;5014356;28;20471;-79
2022/05/04 13:20:36;;;;;;;8.53;5.50;;;22.00;79.90;;;;;;5014329;28;20421;-79